Time;durP1;ratioP1;P1;durP2;ratioP2;P2;SDS_P1;SDS_P2;PMS_P1;PMS_P2;Temp;Humidity;BMP_temperature;BMP_pressure;BME280_temperature;BME280_humidity;BME280_pressure;Samples;Min_cycle;Max_cycle;Signal;HPM_P1;HPM_P2
2023/06/06 00:03:11;;;;;;;6.10;3.25;;;;;;;;;;8289205;28;20057;-94
2023/06/06 00:07:14;;;;;;;7.55;3.60;;;;;;;;;;8286156;28;20132;-94
2023/06/06 00:11:17;;;;;;;5.95;3.38;;;;;;;;;;8292939;28;20481;-93
2023/06/06 00:15:22;;;;;;;5.82;3.33;;;;;;;;;;8289164;28;20058;-94
2023/06/06 00:19:25;;;;;;;4.55;3.05;;;;;;;;;;8302519;28;20057;-92
2023/06/06 00:23:29;;;;;;;4.45;3.05;;;;;;;;;;8292734;28;20058;-93
2023/06/06 00:27:32;;;;;;;4.25;3.22;;;;;;;;;;8287846;28;20139;-93
2023/06/06 00:31:37;;;;;;;5.00;3.30;;;;;;;;;;8278460;28;20193;-94
2023/06/06 00:35:40;;;;;;;7.85;3.47;;;;;;;;;;8286256;28;20085;-94
2023/06/06 00:39:44;;;;;;;6.10;3.30;;;;;;;;;;8269536;28;20072;-93
2023/06/06 00:43:46;;;;;;;5.18;3.13;;;;;;;;;;8269226;28;20050;-94
2023/06/06 00:47:51;;;;;;;4.90;3.10;;;;;;;;;;8282258;28;20054;-94
2023/06/06 00:51:56;;;;;;;6.85;3.20;;;;;;;;;;8298085;28;20081;-93
2023/06/06 00:55:59;;;;;;;4.93;2.92;;;;;;;;;;8291683;28;20486;-93
2023/06/06 01:00:06;;;;;;;5.78;3.50;;;;;;;;;;8281659;28;20109;-94
2023/06/06 01:04:12;;;;;;;5.22;3.15;;;;;;;;;;8278848;28;20050;-93
2023/06/06 01:08:15;;;;;;;5.28;3.42;;;;;;;;;;8288249;28;20062;-95
2023/06/06 01:12:29;;;;;;;7.72;3.28;;;;;;;;;;8281520;28;20101;-95
2023/06/06 01:16:35;;;;;;;5.68;3.38;;;;;;;;;;8286769;28;20447;-93
2023/06/06 01:20:41;;;;;;;5.05;3.20;;;;;;;;;;8283019;28;20141;-94
2023/06/06 01:24:46;;;;;;;6.53;3.58;;;;;;;;;;8281374;28;20066;-93
2023/06/06 01:28:50;;;;;;;6.13;3.53;;;;;;;;;;8293392;28;20112;-93
2023/06/06 01:33:03;;;;;;;5.43;3.40;;;;;;;;;;8299984;28;20057;-93
2023/06/06 01:37:12;;;;;;;5.80;3.47;;;;;;;;;;8273437;28;20078;-94
2023/06/06 01:41:20;;;;;;;5.47;3.30;;;;;;;;;;8261782;28;20089;-93
2023/06/06 01:45:28;;;;;;;5.15;3.15;;;;;;;;;;8294928;28;20092;-93
2023/06/06 01:49:31;;;;;;;7.22;3.72;;;;;;;;;;8259301;28;20411;-94
2023/06/06 01:53:35;;;;;;;6.60;3.55;;;;;;;;;;8270685;28;20049;-93
2023/06/06 01:57:39;;;;;;;6.38;3.55;;;;;;;;;;8299143;28;20137;-92
2023/06/06 02:01:43;;;;;;;6.68;3.65;;;;;;;;;;8272971;28;20050;-93
2023/06/06 02:05:46;;;;;;;10.23;4.32;;;;;;;;;;8264794;28;20141;-93
2023/06/06 02:09:49;;;;;;;5.55;3.60;;;;;;;;;;8253071;28;20407;-93
2023/06/06 02:13:56;;;;;;;5.10;3.08;;;;;;;;;;8238696;28;20124;-94
2023/06/06 02:17:59;;;;;;;6.72;4.00;;;;;;;;;;8250499;28;20065;-94
2023/06/06 02:22:02;;;;;;;5.88;4.00;;;;;;;;;;8261763;28;20077;-94
2023/06/06 02:26:06;;;;;;;7.47;3.90;;;;;;;;;;8252273;28;20133;-93
2023/06/06 02:30:11;;;;;;;4.78;3.60;;;;;;;;;;8266500;28;20091;-93
2023/06/06 02:34:14;;;;;;;6.18;3.58;;;;;;;;;;8266252;28;20051;-93
2023/06/06 02:38:17;;;;;;;7.65;4.10;;;;;;;;;;8264339;28;20410;-94
2023/06/06 02:42:21;;;;;;;7.25;4.93;;;;;;;;;;8247522;28;20057;-93
2023/06/06 02:46:25;;;;;;;8.48;3.80;;;;;;;;;;8261602;28;20141;-93
2023/06/06 02:50:31;;;;;;;9.20;4.05;;;;;;;;;;8253322;28;20129;-94
2023/06/06 02:54:35;;;;;;;7.63;3.85;;;;;;;;;;8265932;28;20085;-95
2023/06/06 02:58:38;;;;;;;7.43;3.58;;;;;;;;;;8253249;28;20414;-94
2023/06/06 03:02:42;;;;;;;5.78;3.22;;;;;;;;;;8264239;28;20141;-94
2023/06/06 03:06:48;;;;;;;5.93;3.50;;;;;;;;;;8246395;28;20522;-94
2023/06/06 03:10:52;;;;;;;9.38;5.10;;;;;;;;;;8249729;28;20062;-94
2023/06/06 03:14:55;;;;;;;6.07;4.10;;;;;;;;;;8252830;28;20141;-94
2023/06/06 03:19:00;;;;;;;6.63;3.38;;;;;;;;;;8236811;28;20134;-95
2023/06/06 03:23:03;;;;;;;5.93;4.18;;;;;;;;;;8244866;28;20062;-95
2023/06/06 03:27:07;;;;;;;7.07;3.65;;;;;;;;;;8230915;28;20488;-94
2023/06/06 03:31:11;;;;;;;10.95;3.53;;;;;;;;;;8240550;28;20054;-94
2023/06/06 03:35:17;;;;;;;8.35;3.38;;;;;;;;;;8271137;28;20058;-95
2023/06/06 03:39:20;;;;;;;6.65;3.58;;;;;;;;;;8271175;28;20137;-93
2023/06/06 03:43:23;;;;;;;5.85;2.80;;;;;;;;;;8259005;28;20043;-95
2023/06/06 03:47:25;;;;;;;4.95;2.97;;;;;;;;;;8235153;28;20055;-94
2023/06/06 03:51:30;;;;;;;7.88;2.75;;;;;;;;;;8238731;28;20063;-94
2023/06/06 03:55:34;;;;;;;7.85;3.30;;;;;;;;;;8269415;28;20042;-94
2023/06/06 03:59:37;;;;;;;8.73;3.10;;;;;;;;;;8257403;28;20046;-93
2023/06/06 04:03:40;;;;;;;11.15;3.35;;;;;;;;;;8257662;28;20066;-94
2023/06/06 04:07:46;;;;;;;6.40;3.20;;;;;;;;;;8288895;28;20058;-95
2023/06/06 04:11:50;;;;;;;5.28;2.72;;;;;;;;;;8283537;28;20415;-95
2023/06/06 04:15:56;;;;;;;9.32;3.10;;;;;;;;;;8303871;28;20458;-96
2023/06/06 04:20:15;;;;;;;8.30;2.90;;;;;;;;;;8295916;28;20050;-96
2023/06/06 04:24:32;;;;;;;7.75;2.65;;;;;;;;;;8219011;28;20055;-95
2023/06/06 04:28:37;;;;;;;8.50;2.63;;;;;;;;;;8218845;28;20067;-95
2023/06/06 04:32:40;;;;;;;5.25;2.53;;;;;;;;;;8221609;28;20082;-94
2023/06/06 04:36:44;;;;;;;5.57;2.70;;;;;;;;;;8225435;28;20058;-94
2023/06/06 04:40:50;;;;;;;6.28;2.40;;;;;;;;;;8234271;28;20751;-94
2023/06/06 04:44:54;;;;;;;6.57;2.55;;;;;;;;;;8234131;28;20070;-94
2023/06/06 04:48:59;;;;;;;6.97;2.58;;;;;;;;;;8278287;28;20145;-95
2023/06/06 04:53:02;;;;;;;5.63;2.47;;;;;;;;;;8287566;28;20137;-94
2023/06/06 04:57:09;;;;;;;3.72;2.40;;;;;;;;;;8287011;28;20148;-94
2023/06/06 05:01:13;;;;;;;4.55;2.17;;;;;;;;;;8277096;28;20060;-95
2023/06/06 05:05:18;;;;;;;4.68;2.47;;;;;;;;;;8297927;28;20065;-94
2023/06/06 05:09:21;;;;;;;6.60;3.20;;;;;;;;;;8288261;28;20869;-94
2023/06/06 05:13:26;;;;;;;4.03;2.50;;;;;;;;;;8284660;28;20057;-94
2023/06/06 05:17:30;;;;;;;6.53;2.40;;;;;;;;;;8288961;28;20097;-94
2023/06/06 05:21:35;;;;;;;6.43;2.10;;;;;;;;;;8280531;28;20085;-94
2023/06/06 05:25:39;;;;;;;6.50;2.72;;;;;;;;;;8280343;28;20071;-95
2023/06/06 05:29:45;;;;;;;3.30;2.03;;;;;;;;;;8280919;28;20058;-94
2023/06/06 05:33:48;;;;;;;4.03;2.10;;;;;;;;;;8261223;28;20060;-95
2023/06/06 05:37:52;;;;;;;8.13;2.40;;;;;;;;;;8278263;28;20112;-95
2023/06/06 05:41:56;;;;;;;5.97;2.42;;;;;;;;;;8276406;28;20082;-94
2023/06/06 05:46:02;;;;;;;3.60;2.13;;;;;;;;;;8279755;28;20057;-93
2023/06/06 05:50:08;;;;;;;4.43;2.40;;;;;;;;;;8268229;28;20058;-93
2023/06/06 05:54:16;;;;;;;6.75;2.10;;;;;;;;;;8287882;28;20070;-95
2023/06/06 05:58:21;;;;;;;6.88;2.92;;;;;;;;;;8305018;28;20085;-96
2023/06/06 06:02:32;;;;;;;6.63;2.67;;;;;;;;;;8285372;28;20108;-95
2023/06/06 06:06:39;;;;;;;3.60;2.08;;;;;;;;;;8258617;28;20066;-94
2023/06/06 06:10:54;;;;;;;5.32;2.03;;;;;;;;;;8268970;28;20144;-94
2023/06/06 06:15:08;;;;;;;11.85;4.65;;;;;;;;;;8281681;28;20137;-95
2023/06/06 06:24:07;;;;;;;4.63;2.20;;;;;;;;;;8301269;28;20072;-95
2023/06/06 06:28:20;;;;;;;5.55;2.70;;;;;;;;;;8292538;28;20127;-94
2023/06/06 06:32:29;;;;;;;3.72;2.30;;;;;;;;;;8284478;28;20085;-94
2023/06/06 06:41:10;;;;;;;5.25;2.20;;;;;;;;;;8307323;28;20058;-95
2023/06/06 06:45:20;;;;;;;5.65;2.25;;;;;;;;;;8305101;28;20058;-95
2023/06/06 06:49:37;;;;;;;4.07;2.00;;;;;;;;;;8310950;28;20086;-94
2023/06/06 06:53:49;;;;;;;4.55;2.42;;;;;;;;;;8288540;28;20049;-95
2023/06/06 06:57:56;;;;;;;4.05;2.30;;;;;;;;;;8307250;28;20053;-95
2023/06/06 07:02:09;;;;;;;6.20;2.60;;;;;;;;;;8324130;28;20057;-95
2023/06/06 07:06:17;;;;;;;7.22;2.10;;;;;;;;;;8305319;28;20058;-95
2023/06/06 07:10:28;;;;;;;6.50;2.35;;;;;;;;;;8284578;28;20046;-95
2023/06/06 07:14:33;;;;;;;7.20;2.28;;;;;;;;;;8301092;28;20062;-95
2023/06/06 07:18:51;;;;;;;5.53;3.90;;;;;;;;;;8322440;28;20058;-96
2023/06/06 07:27:33;;;;;;;4.63;2.00;;;;;;;;;;8286697;28;20108;-95
2023/06/06 07:31:38;;;;;;;4.72;2.42;;;;;;;;;;8269986;28;20050;-95
2023/06/06 07:35:43;;;;;;;4.15;1.90;;;;;;;;;;8300214;28;20410;-96
2023/06/06 07:39:50;;;;;;;3.13;2.10;;;;;;;;;;8294298;28;20113;-94
2023/06/06 07:43:54;;;;;;;5.47;2.10;;;;;;;;;;8299511;28;20038;-94
2023/06/06 07:48:04;;;;;;;5.90;2.70;;;;;;;;;;8297777;28;20059;-95
2023/06/06 07:52:28;;;;;;;3.40;1.98;;;;;;;;;;8275820;28;20082;-95
2023/06/06 07:57:07;;;;;;;4.53;2.40;;;;;;;;;;8287831;28;20414;-94
2023/06/06 08:01:35;;;;;;;5.10;2.72;;;;;;;;;;8232977;28;20448;-95
2023/06/06 08:05:50;;;;;;;5.45;2.50;;;;;;;;;;8250130;28;20142;-96
2023/06/06 08:10:21;;;;;;;3.13;2.13;;;;;;;;;;8223068;28;20078;-95
2023/06/06 08:14:42;;;;;;;3.08;2.17;;;;;;;;;;8220554;28;20051;-95
2023/06/06 08:18:51;;;;;;;6.45;2.78;;;;;;;;;;8234559;28;20129;-92
2023/06/06 08:22:55;;;;;;;4.20;2.30;;;;;;;;;;8247784;28;20384;-92
2023/06/06 08:27:00;;;;;;;7.10;2.60;;;;;;;;;;8242338;28;20057;-92
2023/06/06 08:31:15;;;;;;;4.80;2.35;;;;;;;;;;8302528;28;20054;-96
2023/06/06 08:35:54;;;;;;;4.47;2.45;;;;;;;;;;8257549;28;20149;-94
2023/06/06 08:39:59;;;;;;;5.00;2.40;;;;;;;;;;8287179;28;20066;-94
2023/06/06 08:44:04;;;;;;;7.07;2.70;;;;;;;;;;8288707;28;20066;-92
2023/06/06 08:48:17;;;;;;;4.25;2.40;;;;;;;;;;8296827;28;20093;-96
2023/06/06 08:52:27;;;;;;;5.40;3.13;;;;;;;;;;8269435;28;20517;-93
2023/06/06 08:56:43;;;;;;;5.97;2.60;;;;;;;;;;8292077;28;20404;-92
2023/06/06 09:01:04;;;;;;;5.32;2.45;;;;;;;;;;8281486;28;20494;-93
2023/06/06 09:05:18;;;;;;;4.07;2.28;;;;;;;;;;8282221;28;20049;-94
2023/06/06 09:09:30;;;;;;;4.57;2.47;;;;;;;;;;8274895;28;20053;-95
2023/06/06 09:13:41;;;;;;;5.55;2.60;;;;;;;;;;8267395;28;20061;-94
2023/06/06 09:17:47;;;;;;;4.55;2.85;;;;;;;;;;8293789;28;20096;-94
2023/06/06 09:22:05;;;;;;;3.15;2.30;;;;;;;;;;8263487;28;20107;-95
2023/06/06 09:26:32;;;;;;;4.50;2.80;;;;;;;;;;8294010;28;20046;-96
2023/06/06 09:30:38;;;;;;;4.15;2.65;;;;;;;;;;8290056;28;20053;-94
2023/06/06 09:34:51;;;;;;;4.80;2.40;;;;;;;;;;8287279;28;20112;-93
2023/06/06 09:39:04;;;;;;;5.45;2.70;;;;;;;;;;8291549;28;20062;-93
2023/06/06 09:43:12;;;;;;;3.85;2.53;;;;;;;;;;8276180;28;20506;-92
2023/06/06 09:47:15;;;;;;;4.15;2.58;;;;;;;;;;8295232;28;20411;-92
2023/06/06 09:51:21;;;;;;;4.68;2.70;;;;;;;;;;8270879;28;20058;-94
2023/06/06 09:55:29;;;;;;;7.22;2.80;;;;;;;;;;8284649;28;20080;-93
2023/06/06 09:59:35;;;;;;;4.82;2.83;;;;;;;;;;8282905;28;20096;-93
2023/06/06 10:03:40;;;;;;;5.60;2.70;;;;;;;;;;8283827;28;20520;-93
2023/06/06 10:07:50;;;;;;;6.07;2.80;;;;;;;;;;8275793;28;20132;-93
2023/06/06 10:11:54;;;;;;;;;;;;;;;;;;8268617;28;20672;-91
2023/06/06 10:15:59;;;;;;;7.95;3.33;;;;;;;;;;8277742;28;19932;-94
2023/06/06 10:20:09;;;;;;;5.82;3.03;;;;;;;;;;8275986;28;20058;-94
2023/06/06 10:24:15;;;;;;;6.43;2.85;;;;;;;;;;8289292;28;20052;-93
2023/06/06 10:28:25;;;;;;;6.45;3.00;;;;;;;;;;8283562;28;20101;-91
2023/06/06 10:32:42;;;;;;;6.18;3.13;;;;;;;;;;8286790;28;20054;-93
2023/06/06 10:36:45;;;;;;;6.75;3.10;;;;;;;;;;8282515;28;20479;-93
2023/06/06 10:40:52;;;;;;;5.35;2.75;;;;;;;;;;8272451;28;20093;-91
2023/06/06 10:44:58;;;;;;;7.60;3.17;;;;;;;;;;8270105;28;20137;-92
2023/06/06 10:49:06;;;;;;;4.43;2.60;;;;;;;;;;8274232;28;20054;-93
2023/06/06 10:53:17;;;;;;;4.72;2.90;;;;;;;;;;8278434;28;20417;-93
2023/06/06 10:57:20;;;;;;;7.63;3.10;;;;;;;;;;8276816;28;20062;-91
2023/06/06 11:01:26;;;;;;;5.28;2.83;;;;;;;;;;8289317;28;20145;-93
2023/06/06 11:05:31;;;;;;;9.40;3.20;;;;;;;;;;8270226;28;20054;-92
2023/06/06 11:09:35;;;;;;;5.82;2.90;;;;;;;;;;8269926;28;20050;-91
2023/06/06 11:13:38;;;;;;;6.72;2.90;;;;;;;;;;8275054;28;20046;-91
2023/06/06 11:17:49;;;;;;;5.53;2.67;;;;;;;;;;8276227;28;20054;-90
2023/06/06 11:21:59;;;;;;;5.20;2.95;;;;;;;;;;8300930;28;20054;-93
2023/06/06 11:26:08;;;;;;;5.78;3.00;;;;;;;;;;8301255;28;20116;-92
2023/06/06 11:30:14;;;;;;;5.18;2.65;;;;;;;;;;8288359;28;20061;-92
2023/06/06 11:34:19;;;;;;;5.10;2.90;;;;;;;;;;8275477;28;20402;-91
2023/06/06 11:38:24;;;;;;;6.72;3.25;;;;;;;;;;8275460;28;20061;-91
2023/06/06 11:42:28;;;;;;;5.38;2.83;;;;;;;;;;8289001;28;20129;-91
2023/06/06 11:46:31;;;;;;;6.47;2.88;;;;;;;;;;8295959;28;20641;-92
2023/06/06 11:50:35;;;;;;;3.70;2.47;;;;;;;;;;8275063;28;20054;-91
2023/06/06 11:54:51;;;;;;;6.70;2.50;;;;;;;;;;8290064;28;20388;-90
2023/06/06 11:58:55;;;;;;;3.60;2.47;;;;;;;;;;8277988;28;20488;-93
2023/06/06 12:02:59;;;;;;;6.50;2.97;;;;;;;;;;8272736;28;20053;-92
2023/06/06 12:07:05;;;;;;;5.07;2.60;;;;;;;;;;8281613;28;20064;-91
2023/06/06 12:11:26;;;;;;;6.75;2.83;;;;;;;;;;8283326;28;20494;-95
2023/06/06 12:15:48;;;;;;;6.10;2.75;;;;;;;;;;8281606;28;20057;-93
2023/06/06 12:19:57;;;;;;;5.95;2.72;;;;;;;;;;8282175;28;20046;-93
2023/06/06 12:24:16;;;;;;;4.68;2.67;;;;;;;;;;8281119;28;20133;-94
2023/06/06 12:28:23;;;;;;;6.60;2.83;;;;;;;;;;8300496;28;20049;-94
2023/06/06 12:32:29;;;;;;;6.63;2.58;;;;;;;;;;8276348;28;20059;-94
2023/06/06 12:36:37;;;;;;;4.30;2.72;;;;;;;;;;8287747;28;20061;-94
2023/06/06 12:40:40;;;;;;;5.53;2.80;;;;;;;;;;8284436;28;20064;-93
2023/06/06 12:44:46;;;;;;;4.30;2.63;;;;;;;;;;8299871;28;20418;-94
2023/06/06 12:48:50;;;;;;;8.32;2.92;;;;;;;;;;8286137;28;20505;-93
2023/06/06 12:52:54;;;;;;;6.32;3.00;;;;;;;;;;8289569;28;20073;-94
2023/06/06 12:56:58;;;;;;;5.93;2.72;;;;;;;;;;8267615;28;20050;-94
2023/06/06 13:01:03;;;;;;;7.00;2.75;;;;;;;;;;8294521;28;20096;-94
2023/06/06 13:05:07;;;;;;;9.23;3.08;;;;;;;;;;8286137;28;20494;-95
2023/06/06 13:09:11;;;;;;;8.35;3.55;;;;;;;;;;8298502;28;20062;-94
2023/06/06 13:13:14;;;;;;;5.60;3.10;;;;;;;;;;8299869;28;20077;-96
2023/06/06 13:17:19;;;;;;;6.05;3.03;;;;;;;;;;8289165;28;20068;-95
2023/06/06 13:21:22;;;;;;;7.22;2.60;;;;;;;;;;8279026;28;20084;-95
2023/06/06 13:25:26;;;;;;;6.25;2.70;;;;;;;;;;8280291;28;20084;-95
2023/06/06 13:29:32;;;;;;;7.47;3.20;;;;;;;;;;8261356;28;20053;-96
2023/06/06 13:33:37;;;;;;;10.13;2.80;;;;;;;;;;8286815;28;20057;-95
2023/06/06 13:37:40;;;;;;;5.47;3.10;;;;;;;;;;8298588;28;20132;-94
2023/06/06 13:41:43;;;;;;;6.25;3.13;;;;;;;;;;8300128;28;20469;-96
2023/06/06 13:45:46;;;;;;;5.53;3.20;;;;;;;;;;8297863;28;20410;-94
2023/06/06 13:49:50;;;;;;;5.40;2.58;;;;;;;;;;8291421;28;20107;-95
2023/06/06 13:53:53;;;;;;;5.30;3.17;;;;;;;;;;8293684;28;20050;-94
2023/06/06 13:57:58;;;;;;;8.00;3.30;;;;;;;;;;8288545;28;20100;-93
2023/06/06 14:02:01;;;;;;;7.63;2.97;;;;;;;;;;8283547;28;20142;-95
2023/06/06 14:06:06;;;;;;;7.95;3.10;;;;;;;;;;8297344;28;20058;-95
2023/06/06 14:10:10;;;;;;;6.70;3.10;;;;;;;;;;8299097;28;20058;-95
2023/06/06 14:14:14;;;;;;;6.50;2.97;;;;;;;;;;8287713;28;20050;-96
2023/06/06 14:18:17;;;;;;;4.53;2.90;;;;;;;;;;8269746;28;20058;-94
2023/06/06 14:22:24;;;;;;;6.75;3.08;;;;;;;;;;8285327;28;20055;-95
2023/06/06 14:26:27;;;;;;;5.15;2.72;;;;;;;;;;8291121;28;20423;-95
2023/06/06 14:30:30;;;;;;;4.57;2.65;;;;;;;;;;8268821;28;20382;-93
2023/06/06 14:34:33;;;;;;;7.57;2.55;;;;;;;;;;8277098;28;20077;-94
2023/06/06 14:38:39;;;;;;;6.97;3.10;;;;;;;;;;8291000;28;20065;-94
2023/06/06 14:42:45;;;;;;;6.50;3.03;;;;;;;;;;8296059;28;20407;-94
2023/06/06 14:46:48;;;;;;;7.60;3.13;;;;;;;;;;8286032;28;20061;-95
2023/06/06 14:55:20;;;;;;;5.20;3.10;;;;;;;;;;8344393;23;20123;-94
2023/06/06 14:59:24;;;;;;;7.88;2.92;;;;;;;;;;8350601;28;20409;-93
2023/06/06 15:03:28;;;;;;;9.07;3.20;;;;;;;;;;8345095;28;20060;-95
2023/06/06 15:07:31;;;;;;;4.78;3.00;;;;;;;;;;8340754;28;20048;-95
2023/06/06 15:11:36;;;;;;;10.05;3.80;;;;;;;;;;8333957;28;20064;-95
2023/06/06 15:15:41;;;;;;;9.70;3.70;;;;;;;;;;8336289;28;20523;-96
2023/06/06 15:20:25;;;;;;;5.88;3.20;;;;;;;;;;8335941;28;20046;-96
2023/06/06 15:24:30;;;;;;;9.65;3.47;;;;;;;;;;8360893;28;20052;-95
2023/06/06 15:28:52;;;;;;;13.60;6.45;;;;;;;;;;8355816;28;20053;-96
2023/06/06 15:59:16;;;;;;;8.52;4.30;;;;;;;;;;7960667;29;20062;-94
2023/06/06 16:03:23;;;;;;;7.90;4.10;;;;;;;;;;7952923;29;20605;-96
2023/06/06 16:07:55;;;;;;;8.20;5.18;;;;;;;;;;7946728;29;20054;-96
2023/06/06 16:12:13;;;;;;;8.25;5.03;;;;;;;;;;7962182;29;20137;-96
2023/06/06 16:16:19;;;;;;;10.18;5.57;;;;;;;;;;8048979;29;20057;-96
2023/06/06 16:20:24;;;;;;;9.18;6.47;;;;;;;;;;8075576;29;20052;-96
2023/06/06 16:24:53;;;;;;;9.93;7.05;;;;;;;;;;8115877;29;20084;-96
2023/06/06 16:29:04;;;;;;;14.27;8.18;;;;;;;;;;8150348;29;20139;-96
2023/06/06 16:37:44;;;;;;;10.25;6.50;;;;;;;;;;8362601;28;20050;-95
2023/06/06 16:42:05;;;;;;;12.10;6.13;;;;;;;;;;8346583;28;20061;-96
2023/06/06 16:46:23;;;;;;;8.20;5.25;;;;;;;;;;8358386;28;20060;-96
2023/06/06 16:55:13;;;;;;;8.48;5.50;;;;;;;;;;8364531;28;20045;-96
2023/06/06 16:59:19;;;;;;;6.88;4.90;;;;;;;;;;8348639;28;20060;-96
2023/06/06 17:03:26;;;;;;;6.55;4.20;;;;;;;;;;8354589;28;20053;-95
2023/06/06 17:07:30;;;;;;;6.97;4.35;;;;;;;;;;8353944;28;20057;-95
2023/06/06 17:11:34;;;;;;;6.78;4.20;;;;;;;;;;8373616;28;20052;-95
2023/06/06 17:15:41;;;;;;;8.23;5.05;;;;;;;;;;8357600;28;20060;-95
2023/06/06 17:19:45;;;;;;;8.05;4.82;;;;;;;;;;8350333;28;20049;-96
2023/06/06 17:23:58;;;;;;;8.52;5.35;;;;;;;;;;8344244;28;20049;-96
2023/06/06 17:28:03;;;;;;;8.52;5.40;;;;;;;;;;8327032;28;20057;-96
2023/06/06 17:32:10;;;;;;;26.02;10.95;;;;;;;;;;8346683;28;20087;-95
2023/06/06 17:36:16;;;;;;;7.93;5.32;;;;;;;;;;8328345;28;20102;-96
2023/06/06 17:40:21;;;;;;;10.55;6.07;;;;;;;;;;8356366;28;20210;-96
2023/06/06 17:59:20;;;;;;;28.75;13.65;;;;;;;;;;8371401;28;20087;-96
2023/06/06 18:04:02;;;;;;;16.63;10.60;;;;;;;;;;8257976;28;20051;-95
2023/06/06 18:08:43;;;;;;;10.10;7.25;;;;;;;;;;8246392;28;20054;-96
2023/06/06 18:13:04;;;;;;;12.80;7.38;;;;;;;;;;8257826;28;20471;-96
2023/06/06 18:17:26;;;;;;;11.20;8.43;;;;;;;;;;8207419;28;20430;-96
2023/06/06 18:37:25;;;;;;;13.67;8.93;;;;;;;;;;8027144;29;20061;-96
2023/06/06 18:41:36;;;;;;;15.48;11.75;;;;;;;;;;8037989;29;20084;-96
2023/06/06 18:45:56;;;;;;;17.10;14.50;;;;;;;;;;8014617;29;20585;-95
2023/06/06 18:50:02;;;;;;;15.63;13.45;;;;;;;;;;7999896;29;20062;-96
2023/06/06 18:54:24;;;;;;;17.92;14.10;;;;;;;;;;8016899;29;20054;-96
2023/06/06 18:58:31;;;;;;;18.27;14.40;;;;;;;;;;8001150;29;20050;-96
2023/06/06 19:02:38;;;;;;;20.52;15.05;;;;;;;;;;8145692;28;20054;-94
2023/06/06 19:06:42;;;;;;;20.27;16.80;;;;;;;;;;8233539;28;20054;-95
2023/06/06 19:10:48;;;;;;;20.50;15.90;;;;;;;;;;8238163;28;20082;-95
2023/06/06 19:14:56;;;;;;;23.27;15.20;;;;;;;;;;8217800;28;20054;-95
2023/06/06 19:18:59;;;;;;;18.73;14.10;;;;;;;;;;8234634;28;20152;-96
2023/06/06 19:23:03;;;;;;;20.38;14.82;;;;;;;;;;8270641;28;20062;-96
2023/06/06 19:27:08;;;;;;;19.13;14.60;;;;;;;;;;8329329;28;20060;-95
2023/06/06 19:31:12;;;;;;;19.42;13.70;;;;;;;;;;8359963;28;20426;-96
2023/06/06 19:35:16;;;;;;;26.15;16.35;;;;;;;;;;8338408;28;20485;-95
2023/06/06 19:39:19;;;;;;;19.98;13.02;;;;;;;;;;8347956;28;20113;-96
2023/06/06 19:43:26;;;;;;;18.40;13.00;;;;;;;;;;8353962;28;20054;-96
2023/06/06 19:47:30;;;;;;;20.00;14.15;;;;;;;;;;8353277;28;20049;-96
2023/06/06 19:51:35;;;;;;;18.45;13.75;;;;;;;;;;8363790;28;20041;-96
2023/06/06 19:55:43;;;;;;;17.13;12.98;;;;;;;;;;8370320;28;20060;-96
2023/06/06 19:59:49;;;;;;;17.08;12.82;;;;;;;;;;8374691;28;20557;-95
2023/06/06 20:03:58;;;;;;;17.33;13.43;;;;;;;;;;8379764;28;20064;-95
2023/06/06 20:08:02;;;;;;;17.33;14.10;;;;;;;;;;8348568;28;20056;-95
2023/06/06 20:12:30;;;;;;;17.13;14.73;;;;;;;;;;8347390;28;20057;-95
2023/06/06 20:16:36;;;;;;;18.80;16.08;;;;;;;;;;8337500;28;20053;-95
2023/06/06 20:20:44;;;;;;;22.75;17.52;;;;;;;;;;8346938;28;20064;-95
2023/06/06 20:24:48;;;;;;;23.42;17.58;;;;;;;;;;8384226;28;20056;-95
2023/06/06 20:28:52;;;;;;;21.40;17.80;;;;;;;;;;8376905;28;20053;-95
2023/06/06 20:33:00;;;;;;;41.30;27.98;;;;;;;;;;8347037;28;20060;-95
2023/06/06 20:37:06;;;;;;;27.92;21.58;;;;;;;;;;8379902;28;20386;-95
2023/06/06 20:41:10;;;;;;;27.15;20.42;;;;;;;;;;8358355;28;20057;-96
2023/06/06 20:45:15;;;;;;;25.85;19.77;;;;;;;;;;8375092;28;20551;-95
2023/06/06 20:49:25;;;;;;;29.00;22.60;;;;;;;;;;8337114;28;20504;-96
2023/06/06 20:53:31;;;;;;;24.42;18.85;;;;;;;;;;8374008;28;20049;-96
2023/06/06 20:57:35;;;;;;;21.52;17.45;;;;;;;;;;8350991;28;20107;-95
2023/06/06 21:01:39;;;;;;;19.50;15.77;;;;;;;;;;8365363;28;20061;-95
2023/06/06 21:05:47;;;;;;;22.20;17.25;;;;;;;;;;8364355;28;20492;-95
2023/06/06 21:09:58;;;;;;;22.77;16.88;;;;;;;;;;8377682;28;20052;-95
2023/06/06 21:14:04;;;;;;;23.23;17.80;;;;;;;;;;8363113;28;20103;-95
2023/06/06 21:18:08;;;;;;;22.80;16.75;;;;;;;;;;8342608;28;20049;-95
2023/06/06 21:22:14;;;;;;;21.27;17.25;;;;;;;;;;8346433;28;20088;-96
2023/06/06 21:26:18;;;;;;;21.65;15.32;;;;;;;;;;8345686;28;20053;-95
2023/06/06 21:30:22;;;;;;;22.58;18.02;;;;;;;;;;8353340;28;20504;-94
2023/06/06 21:34:26;;;;;;;24.27;19.63;;;;;;;;;;8373567;28;20093;-96
2023/06/06 21:38:48;;;;;;;26.50;18.70;;;;;;;;;;8377706;28;20144;-95
2023/06/06 21:43:08;;;;;;;24.98;18.33;;;;;;;;;;8376397;28;20053;-95
2023/06/06 21:47:36;;;;;;;20.10;15.77;;;;;;;;;;8335719;28;20045;-96
2023/06/06 22:01:02;;;;;;;27.60;21.35;;;;;;;;;;8368649;28;20061;-96
2023/06/06 22:09:45;;;;;;;23.75;19.05;;;;;;;;;;8361061;28;20056;-96
2023/06/06 22:14:07;;;;;;;22.75;18.77;;;;;;;;;;8361641;28;20155;-96
2023/06/06 22:22:40;;;;;;;22.52;17.95;;;;;;;;;;8374285;28;20053;-96
2023/06/06 22:27:07;;;;;;;30.30;20.10;;;;;;;;;;8384825;28;20053;-96
2023/06/06 22:31:45;;;;;;;29.50;21.27;;;;;;;;;;8375162;28;20049;-96
2023/06/06 22:36:00;;;;;;;25.75;18.70;;;;;;;;;;8365300;28;20072;-95
2023/06/06 22:40:21;;;;;;;23.92;18.55;;;;;;;;;;8347089;28;20098;-95
2023/06/06 22:44:35;;;;;;;25.52;18.23;;;;;;;;;;8332996;28;20107;-95
2023/06/06 22:48:53;;;;;;;29.60;20.90;;;;;;;;;;8359796;28;20140;-95
2023/06/06 22:53:01;;;;;;;26.95;19.25;;;;;;;;;;8376378;28;20053;-95
2023/06/06 22:57:18;;;;;;;27.38;18.98;;;;;;;;;;8364098;28;20076;-95
2023/06/06 23:01:24;;;;;;;24.80;17.67;;;;;;;;;;8352902;28;20053;-96
2023/06/06 23:05:42;;;;;;;21.17;17.08;;;;;;;;;;8361488;28;20056;-96
2023/06/06 23:09:56;;;;;;;20.92;17.00;;;;;;;;;;8344357;28;20060;-96
2023/06/06 23:14:25;;;;;;;23.25;16.90;;;;;;;;;;8365590;28;20049;-96
2023/06/06 23:18:36;;;;;;;22.58;17.27;;;;;;;;;;8334903;28;20071;-96
2023/06/06 23:27:28;;;;;;;21.27;15.85;;;;;;;;;;8179082;29;20132;-96
2023/06/06 23:31:52;;;;;;;22.80;17.02;;;;;;;;;;8216507;29;20055;-96
2023/06/06 23:40:58;;;;;;;21.83;16.60;;;;;;;;;;8188325;29;20211;-96
2023/06/06 23:45:18;;;;;;;20.10;16.45;;;;;;;;;;8221860;29;20069;-96
2023/06/06 23:58:52;;;;;;;22.48;17.27;;;;;;;;;;8066275;29;20060;-96
